createdAt,value
2023-05-02T19:07:49.923Z,1.44
2023-05-02T19:08:18.105Z,2.09
2023-05-02T19:08:49.127Z,2.89
2023-05-02T19:09:20.355Z,.32
2023-05-02T19:09:52.242Z,.32
2023-05-02T19:10:22.234Z,.32
2023-05-02T19:10:53.058Z,0
2023-05-02T19:11:23.998Z,1.77
2023-05-02T19:11:54.787Z,0
2023-05-02T19:12:25.820Z,0
2023-05-02T19:12:56.856Z,1.44
2023-05-02T19:13:28.118Z,.32
2023-05-02T19:13:58.800Z,0
2023-05-02T19:14:29.726Z,0
2023-05-02T19:15:05.136Z,0
2023-05-02T19:15:32.157Z,.32
2023-05-02T19:16:03.042Z,1.77
2023-05-02T19:16:34.594Z,1.12
2023-05-02T19:17:05.445Z,1.44
2023-05-02T19:17:35.929Z,0
2023-05-02T19:18:06.886Z,0
2023-05-02T19:18:38.237Z,0
2023-05-02T19:19:08.803Z,0
2023-05-02T19:19:39.824Z,0
2023-05-02T19:20:11.794Z,0
2023-05-02T19:20:41.801Z,0
2023-05-02T19:21:12.722Z,0
2023-05-02T19:21:43.831Z,0
2023-05-02T19:22:14.590Z,0
2023-05-02T19:22:45.826Z,0
2023-05-02T19:23:20.068Z,0
2023-05-02T19:23:47.741Z,0
2023-05-02T19:24:18.776Z,0
2023-05-02T19:24:49.711Z,0
2023-05-02T19:25:22.404Z,0
2023-05-02T19:25:51.692Z,0
2023-05-02T19:26:22.929Z,0
2023-05-02T19:26:53.925Z,0
2023-05-02T19:27:24.729Z,0
2023-05-02T19:27:55.579Z,0
2023-05-02T19:28:26.700Z,0
2023-05-02T19:28:57.897Z,0
2023-05-02T19:29:30.204Z,0
2023-05-02T19:29:59.948Z,0
2023-05-02T19:30:36.662Z,0
2023-05-02T19:31:02.064Z,0
2023-05-02T19:31:32.747Z,0
2023-05-02T19:32:04.216Z,0
2023-05-02T19:32:35.175Z,0
2023-05-02T19:33:06.054Z,0
2023-05-02T19:33:36.755Z,0
2023-05-02T19:34:07.963Z,0
2023-05-02T19:34:38.754Z,0
2023-05-02T19:35:09.906Z,.32
2023-05-02T19:35:42.510Z,1.12
2023-05-02T19:36:12.022Z,.64
2023-05-02T19:36:43.214Z,0
2023-05-02T19:37:16.774Z,0
2023-05-02T19:37:45.346Z,.32
2023-05-02T19:38:15.948Z,0
2023-05-02T19:38:47.115Z,0
2023-05-02T19:39:17.949Z,.32
2023-05-02T19:39:48.997Z,.32
2023-05-02T19:40:19.728Z,0
2023-05-02T19:40:51.982Z,0
2023-05-02T19:41:22.105Z,0
2023-05-02T19:41:52.964Z,0
2023-05-02T19:42:23.732Z,0
2023-05-02T19:42:54.871Z,0
2023-05-02T19:43:25.629Z,0
2023-05-02T19:43:57.478Z,0
2023-05-02T19:44:28.105Z,0
2023-05-02T19:45:05.212Z,0
2023-05-02T19:45:29.966Z,0
2023-05-02T19:46:01.852Z,0
2023-05-02T19:46:31.637Z,0
2023-05-02T19:47:02.900Z,0
2023-05-02T19:47:33.800Z,0
2023-05-02T19:48:04.753Z,0
2023-05-02T19:48:36.206Z,0
2023-05-02T19:49:07.103Z,0
2023-05-02T19:49:38.018Z,0
2023-05-02T19:50:08.886Z,0
2023-05-02T19:50:39.552Z,0
2023-05-02T19:51:11.786Z,.32
2023-05-02T19:51:41.989Z,0
2023-05-02T19:52:13.109Z,0
2023-05-02T19:52:44.104Z,0
2023-05-02T19:53:15.040Z,0
2023-05-02T19:53:45.798Z,0
2023-05-02T19:54:16.631Z,0
2023-05-02T19:54:47.658Z,0
2023-05-02T19:55:18.861Z,0
2023-05-02T19:55:50.158Z,0
2023-05-02T19:56:22.279Z,0
2023-05-02T19:56:51.750Z,0
2023-05-02T19:57:22.829Z,0
2023-05-02T19:57:53.711Z,0
2023-05-02T19:58:24.798Z,0
2023-05-02T19:58:55.571Z,0
2023-05-02T19:59:26.833Z,0
2023-05-02T19:59:57.700Z,0
2023-05-02T20:00:31.662Z,0
2023-05-02T20:00:59.836Z,0
2023-05-02T20:01:31.883Z,0
2023-05-02T20:02:01.828Z,0
2023-05-02T20:02:32.922Z,0
2023-05-02T20:03:03.688Z,0
2023-05-02T20:03:35.237Z,0
2023-05-02T20:04:05.809Z,0
2023-05-02T20:04:36.896Z,0
2023-05-02T20:05:07.974Z,0
2023-05-02T20:05:38.741Z,0
2023-05-02T20:06:09.755Z,0
2023-05-02T20:06:41.880Z,0
2023-05-02T20:07:11.714Z,0
2023-05-02T20:07:43.957Z,0
2023-05-02T20:08:13.942Z,0
2023-05-02T20:08:45.321Z,0
2023-05-02T20:09:15.897Z,0
2023-05-02T20:09:46.864Z,0
2023-05-02T20:10:17.768Z,0
2023-05-02T20:10:48.908Z,0
2023-05-02T20:11:19.791Z,0
2023-05-02T20:11:51.633Z,0
2023-05-02T20:12:21.897Z,0
2023-05-02T20:12:52.940Z,0
2023-05-02T20:13:23.702Z,0
2023-05-02T20:13:54.764Z,0
2023-05-02T20:14:25.823Z,0
2023-05-02T20:14:56.852Z,0
2023-05-02T20:15:30.674Z,0
2023-05-02T20:15:58.684Z,0
2023-05-02T20:16:29.966Z,0
2023-05-02T20:17:02.243Z,0
2023-05-02T20:17:31.691Z,0
2023-05-02T20:18:02.766Z,0
2023-05-02T20:18:33.704Z,0
2023-05-02T20:19:04.786Z,0
2023-05-02T20:19:35.944Z,0
2023-05-02T20:20:06.651Z,0
2023-05-02T20:20:37.701Z,0
2023-05-02T20:21:08.749Z,0
2023-05-02T20:21:40.088Z,0
2023-05-02T20:22:11.949Z,0
2023-05-02T20:22:41.751Z,0
2023-05-02T20:23:12.856Z,.32
2023-05-02T20:23:43.749Z,1.44
2023-05-02T20:24:15.021Z,1.77
2023-05-02T20:24:46.157Z,1.77
2023-05-02T20:25:17.341Z,1.77
2023-05-02T20:25:48.021Z,1.12
2023-05-02T20:26:19.126Z,1.12
2023-05-02T20:26:49.903Z,0
2023-05-02T20:27:22.085Z,0
2023-05-02T20:27:51.831Z,0
2023-05-02T20:28:23.103Z,.32
2023-05-02T20:28:54.279Z,.32
2023-05-02T20:29:25.161Z,0
2023-05-02T20:29:56.339Z,0
2023-05-02T20:30:30.043Z,0
2023-05-02T20:30:57.869Z,0
2023-05-02T20:31:29.268Z,0
2023-05-02T20:31:59.954Z,0
2023-05-02T20:32:31.855Z,0
2023-05-02T20:33:14.069Z,0
2023-05-02T20:33:43.739Z,0
2023-05-02T20:34:03.910Z,0
2023-05-02T20:34:34.997Z,0
2023-05-02T20:35:06.247Z,0
2023-05-02T20:35:36.504Z,0
2023-05-02T20:36:08.079Z,0
2023-05-02T20:36:38.842Z,0
2023-05-02T20:37:09.504Z,0
2023-05-02T20:37:42.105Z,0
2023-05-02T20:38:13.912Z,0
2023-05-02T20:38:43.695Z,1.12
2023-05-02T20:39:14.655Z,.64
2023-05-02T20:39:45.129Z,.64
2023-05-02T20:40:15.821Z,.32
2023-05-02T20:40:46.581Z,0
2023-05-02T20:41:17.591Z,.64
2023-05-02T20:41:48.969Z,1.12
2023-05-02T20:42:19.655Z,0
2023-05-02T20:42:52.081Z,0
2023-05-02T20:43:21.942Z,0
2023-05-02T20:43:52.996Z,0
2023-05-02T20:44:24.421Z,0
2023-05-02T20:44:55.025Z,0
2023-05-02T20:45:28.852Z,0
2023-05-02T20:45:57.009Z,0
2023-05-02T20:46:27.915Z,1.44
2023-05-02T20:46:58.647Z,2.57
2023-05-02T20:47:30.097Z,2.09
2023-05-02T20:48:01.667Z,1.77
2023-05-02T20:48:31.879Z,.32
2023-05-02T20:49:02.889Z,0
2023-05-02T20:49:33.915Z,0
2023-05-02T20:50:05.231Z,0
2023-05-02T20:50:37.484Z,0
2023-05-02T20:51:07.204Z,0
2023-05-02T20:51:38.429Z,0
2023-05-02T20:52:08.830Z,.32
2023-05-02T20:52:39.728Z,0
2023-05-02T20:53:11.902Z,0
2023-05-02T20:53:41.901Z,0
2023-05-02T20:54:12.885Z,.64
2023-05-02T20:54:43.686Z,0
2023-05-02T20:55:14.784Z,0
2023-05-02T20:55:45.946Z,0
2023-05-02T20:56:17.084Z,0
2023-05-02T20:56:48.503Z,.32
2023-05-02T20:57:19.411Z,.32
2023-05-02T20:57:49.688Z,1.12
2023-05-02T20:58:22.141Z,1.12
2023-05-02T20:58:52.424Z,1.44
2023-05-02T20:59:23.199Z,0
2023-05-02T20:59:53.772Z,0
2023-05-02T21:00:27.478Z,0
2023-05-02T21:00:55.941Z,0
2023-05-02T21:01:27.250Z,0
2023-05-02T21:01:57.856Z,0
2023-05-02T21:02:28.893Z,0
2023-05-02T21:02:59.790Z,0
2023-05-02T21:03:31.799Z,0
2023-05-02T21:04:01.933Z,0
2023-05-02T21:04:32.908Z,0
2023-05-02T21:05:03.789Z,0
2023-05-02T21:05:35.466Z,0
2023-05-02T21:06:05.840Z,0
2023-05-02T21:06:37.005Z,0
2023-05-02T21:07:07.896Z,0
2023-05-02T21:07:39.181Z,0
2023-05-02T21:08:09.655Z,0
2023-05-02T21:08:41.909Z,0
2023-05-02T21:09:11.772Z,0
2023-05-02T21:09:42.779Z,.64
2023-05-02T21:10:13.754Z,1.44
2023-05-02T21:10:44.709Z,0
2023-05-02T21:11:16.103Z,0
2023-05-02T21:11:46.626Z,0
2023-05-02T21:12:17.719Z,0
2023-05-02T21:12:49.046Z,0
2023-05-02T21:13:20.048Z,0
2023-05-02T21:13:51.992Z,0
2023-05-02T21:14:21.779Z,0
2023-05-02T21:14:52.732Z,0
2023-05-02T21:15:26.427Z,0
2023-05-02T21:15:54.945Z,0
2023-05-02T21:16:26.292Z,0
2023-05-02T21:16:56.761Z,0
2023-05-02T21:17:27.737Z,0
2023-05-02T21:17:58.733Z,0
2023-05-02T21:18:30.198Z,0
2023-05-02T21:19:02.400Z,0
2023-05-02T21:19:33.624Z,0
2023-05-02T21:20:03.262Z,0
2023-05-02T21:20:33.790Z,0
2023-05-02T21:21:04.863Z,0
2023-05-02T21:21:35.768Z,0
2023-05-02T21:22:06.986Z,0
2023-05-02T21:22:37.649Z,.32
2023-05-02T21:23:08.869Z,1.12
2023-05-02T21:23:39.836Z,0
2023-05-02T21:24:12.098Z,0
2023-05-02T21:24:41.852Z,0
2023-05-02T21:25:12.715Z,0
2023-05-02T21:25:43.789Z,0
2023-05-02T21:26:14.653Z,0
2023-05-02T21:26:45.491Z,0
2023-05-02T21:27:16.940Z,0
2023-05-02T21:27:47.602Z,0
2023-05-02T21:28:18.829Z,0
2023-05-02T21:28:49.558Z,0
2023-05-02T21:29:21.905Z,0
2023-05-02T21:29:51.601Z,0
2023-05-02T21:30:25.662Z,0
2023-05-02T21:30:53.954Z,0
2023-05-02T21:31:24.871Z,0
2023-05-02T21:31:55.780Z,0
2023-05-02T21:32:26.881Z,0
2023-05-02T21:32:57.801Z,0
2023-05-02T21:33:28.538Z,0
2023-05-02T21:33:59.904Z,0
2023-05-02T21:34:31.711Z,0
2023-05-02T21:35:02.166Z,0
2023-05-02T21:35:32.945Z,0
2023-05-02T21:36:04.108Z,0
2023-05-02T21:36:34.992Z,0
2023-05-02T21:37:06.100Z,0
2023-05-02T21:37:37.303Z,0
2023-05-02T21:38:08.440Z,0
2023-05-02T21:38:38.747Z,0
2023-05-02T21:39:09.801Z,0
2023-05-02T21:39:41.685Z,0
2023-05-02T21:40:11.952Z,0
2023-05-02T21:40:42.927Z,0
2023-05-02T21:41:13.740Z,0
2023-05-02T21:41:44.894Z,0
2023-05-02T21:42:16.078Z,0
2023-05-02T21:42:46.930Z,0
2023-05-02T21:43:17.858Z,0
2023-05-02T21:43:48.646Z,0
2023-05-02T21:44:19.754Z,.32
2023-05-02T21:44:51.748Z,0
2023-05-02T21:45:24.414Z,0
2023-05-02T21:45:52.873Z,0
2023-05-02T21:46:23.904Z,.32
2023-05-02T21:46:54.770Z,0
2023-05-02T21:47:25.991Z,1.44
2023-05-02T21:47:57.090Z,1.77
2023-05-02T21:48:27.948Z,1.44
2023-05-02T21:48:58.682Z,.64
2023-05-02T21:49:29.638Z,0
2023-05-02T21:50:01.863Z,0
2023-05-02T21:50:31.782Z,0
2023-05-02T21:51:02.844Z,0
2023-05-02T21:51:34.010Z,0
2023-05-02T21:52:05.009Z,0
2023-05-02T21:52:35.719Z,.64
2023-05-02T21:53:06.773Z,1.44
2023-05-02T21:53:37.927Z,1.77
2023-05-02T21:54:09.027Z,1.77
2023-05-02T21:54:39.767Z,.64
2023-05-02T21:55:12.815Z,0
2023-05-02T21:55:42.103Z,0
2023-05-02T21:56:14.326Z,0
2023-05-02T21:56:44.605Z,0
2023-05-02T21:57:15.176Z,0
2023-05-02T21:57:46.129Z,0
2023-05-02T21:58:23.723Z,0
2023-05-02T21:58:48.619Z,0
2023-05-02T21:59:19.652Z,0
2023-05-02T21:59:50.918Z,0
2023-05-02T22:00:24.856Z,.32
2023-05-02T22:00:52.554Z,1.77
2023-05-02T22:01:24.343Z,1.77
2023-05-02T22:01:54.161Z,1.77
2023-05-02T22:02:25.165Z,.64
2023-05-02T22:02:56.452Z,1.44
2023-05-02T22:03:26.883Z,.32
2023-05-02T22:03:58.245Z,0
2023-05-02T22:04:28.870Z,0
2023-05-02T22:05:00.016Z,0
2023-05-02T22:05:33.416Z,0
2023-05-02T22:06:02.066Z,0
2023-05-02T22:06:33.046Z,0
2023-05-02T22:07:03.873Z,0
2023-05-02T22:07:35.190Z,0
2023-05-02T22:08:05.965Z,0
2023-05-02T22:08:37.112Z,0
2023-05-02T22:09:08.257Z,0
2023-05-02T22:09:39.034Z,0
2023-05-02T22:10:09.902Z,0
2023-05-02T22:10:42.076Z,0
2023-05-02T22:11:12.231Z,0
2023-05-02T22:11:42.829Z,0
2023-05-02T22:12:13.866Z,0
2023-05-02T22:12:44.801Z,0
2023-05-02T22:13:15.832Z,0
2023-05-02T22:13:46.705Z,0
2023-05-02T22:14:17.920Z,0
2023-05-02T22:14:48.799Z,0
2023-05-02T22:15:20.124Z,0
2023-05-02T22:15:52.061Z,0
2023-05-02T22:16:21.826Z,0
2023-05-02T22:16:52.872Z,0
2023-05-02T22:17:24.669Z,0
2023-05-02T22:17:54.940Z,0
2023-05-02T22:18:26.233Z,1.44
2023-05-02T22:18:57.012Z,0
2023-05-02T22:19:27.836Z,0
2023-05-02T22:19:58.908Z,0
2023-05-02T22:20:29.889Z,0
2023-05-02T22:21:01.655Z,.64
2023-05-02T22:21:31.591Z,1.44
2023-05-02T22:22:02.949Z,.32
2023-05-02T22:22:33.818Z,0
2023-05-02T22:23:04.607Z,0
2023-05-02T22:23:35.719Z,0
2023-05-02T22:24:06.967Z,0
2023-05-02T22:24:38.189Z,.32
2023-05-02T22:25:08.941Z,0
2023-05-02T22:25:41.110Z,0
2023-05-02T22:26:12.339Z,.32
2023-05-02T22:26:41.845Z,0
2023-05-02T22:27:12.941Z,0
2023-05-02T22:27:44.096Z,0
2023-05-02T22:28:14.911Z,.32
2023-05-02T22:28:45.972Z,.32
2023-05-02T22:29:17.247Z,0
2023-05-02T22:29:47.776Z,0
2023-05-02T22:30:19.403Z,0
2023-05-02T22:30:49.904Z,0
2023-05-02T22:31:22.163Z,0
2023-05-02T22:31:52.077Z,0
2023-05-02T22:32:23.211Z,0
2023-05-02T22:32:54.370Z,0
2023-05-02T22:33:25.186Z,0
2023-05-02T22:33:55.892Z,1.12
2023-05-02T22:34:27.305Z,0
2023-05-02T22:34:58.330Z,0
2023-05-02T22:35:28.978Z,0
2023-05-02T22:35:59.883Z,0
2023-05-02T22:36:31.781Z,1.12
2023-05-02T22:37:01.940Z,0
2023-05-02T22:37:33.233Z,0
2023-05-02T22:38:03.681Z,0
2023-05-02T22:38:34.941Z,0
2023-05-02T22:39:05.859Z,0
2023-05-02T22:39:36.900Z,0
2023-05-02T22:40:08.377Z,0
2023-05-02T22:40:39.626Z,0
2023-05-02T22:41:10.001Z,0
2023-05-02T22:41:41.725Z,0
2023-05-02T22:42:12.055Z,0
2023-05-02T22:42:42.897Z,0
2023-05-02T22:43:13.753Z,0
2023-05-02T22:43:44.887Z,0
2023-05-02T22:44:15.978Z,0
2023-05-02T22:44:54.121Z,0
2023-05-02T22:45:18.017Z,0
2023-05-02T22:45:48.706Z,.32
2023-05-02T22:46:19.933Z,0
2023-05-02T22:46:51.949Z,0
2023-05-02T22:47:21.951Z,0
2023-05-02T22:47:52.760Z,.32
2023-05-02T22:48:23.714Z,.64
2023-05-02T22:48:54.785Z,0
2023-05-02T22:49:25.922Z,0
2023-05-02T22:49:57.276Z,0
2023-05-02T22:50:28.286Z,0
2023-05-02T22:50:59.110Z,1.77
2023-05-02T22:51:30.012Z,1.44
2023-05-02T22:52:02.107Z,1.12
2023-05-02T22:52:31.934Z,1.44
2023-05-02T22:53:03.107Z,1.77
2023-05-02T22:53:33.694Z,1.77
2023-05-02T22:54:04.737Z,1.77
2023-05-02T22:54:35.748Z,1.44
2023-05-02T22:55:07.090Z,1.44
2023-05-02T22:55:37.774Z,.32
2023-05-02T22:56:09.037Z,0
2023-05-02T22:56:39.673Z,0
2023-05-02T22:57:11.638Z,0
2023-05-02T22:57:41.880Z,0
2023-05-02T22:58:12.629Z,0
2023-05-02T22:58:43.955Z,.32
2023-05-02T22:59:14.831Z,.32
2023-05-02T22:59:45.758Z,0
2023-05-02T23:00:17.410Z,0
2023-05-02T23:00:48.929Z,0
2023-05-02T23:01:19.221Z,0
2023-05-02T23:01:50.040Z,0
2023-05-02T23:02:21.855Z,0
2023-05-02T23:02:51.986Z,0
2023-05-02T23:03:23.222Z,0
2023-05-02T23:03:54.245Z,0
2023-05-02T23:04:25.302Z,0
2023-05-02T23:04:55.891Z,0
2023-05-02T23:05:28.140Z,0
2023-05-02T23:05:57.823Z,0
2023-05-02T23:06:28.866Z,0
2023-05-02T23:06:59.816Z,0
2023-05-02T23:07:31.920Z,0
2023-05-02T23:08:01.974Z,0
2023-05-02T23:08:32.910Z,0
2023-05-02T23:09:03.995Z,0
2023-05-02T23:09:34.884Z,0
2023-05-02T23:10:06.256Z,0
2023-05-02T23:10:37.386Z,0
2023-05-02T23:11:08.107Z,0
2023-05-02T23:11:39.022Z,0
2023-05-02T23:12:09.905Z,0
2023-05-02T23:12:42.152Z,0
2023-05-02T23:13:11.985Z,0
2023-05-02T23:13:43.031Z,0
2023-05-02T23:14:13.962Z,0
2023-05-02T23:14:44.744Z,0
2023-05-02T23:15:15.989Z,0
2023-05-02T23:15:46.699Z,0
2023-05-02T23:16:17.972Z,0
2023-05-02T23:16:49.016Z,0
2023-05-02T23:17:19.912Z,0
2023-05-02T23:17:51.822Z,0
2023-05-02T23:18:21.883Z,0
2023-05-02T23:18:52.734Z,0
2023-05-02T23:19:23.743Z,0
2023-05-02T23:19:54.573Z,0
2023-05-02T23:20:25.796Z,0
2023-05-02T23:20:57.338Z,0
2023-05-02T23:21:27.956Z,0
2023-05-02T23:21:59.310Z,0
2023-05-02T23:22:29.976Z,0
2023-05-02T23:23:01.978Z,0
2023-05-02T23:23:31.775Z,0
2023-05-02T23:24:03.134Z,0
2023-05-02T23:24:33.891Z,0
2023-05-02T23:25:04.784Z,0
2023-05-02T23:25:35.891Z,0
2023-05-02T23:26:06.906Z,0
2023-05-02T23:26:37.946Z,0
2023-05-02T23:27:08.827Z,0
2023-05-02T23:27:39.817Z,0
2023-05-02T23:28:11.914Z,0
2023-05-02T23:28:41.786Z,0
2023-05-02T23:29:12.584Z,0
2023-05-02T23:29:43.619Z,0
2023-05-02T23:30:15.023Z,0
2023-05-02T23:30:45.863Z,0
2023-05-02T23:31:17.042Z,0
2023-05-02T23:31:48.050Z,0
2023-05-02T23:32:18.962Z,0
2023-05-02T23:32:49.801Z,0
2023-05-02T23:33:21.951Z,0
2023-05-02T23:33:51.961Z,0
2023-05-02T23:34:22.716Z,0
2023-05-02T23:34:53.753Z,0
2023-05-02T23:35:24.765Z,0
2023-05-02T23:35:55.797Z,0
2023-05-02T23:36:26.605Z,0
2023-05-02T23:36:57.625Z,0
2023-05-02T23:37:29.444Z,0
2023-05-02T23:37:59.921Z,0
2023-05-02T23:38:32.047Z,0
2023-05-02T23:39:01.864Z,0
2023-05-02T23:39:32.842Z,0
2023-05-02T23:40:04.111Z,0
2023-05-02T23:40:34.946Z,0
2023-05-02T23:41:06.361Z,0
2023-05-02T23:41:38.747Z,0
2023-05-02T23:42:08.178Z,0
2023-05-02T23:42:39.120Z,0
2023-05-02T23:43:09.921Z,0
2023-05-02T23:43:41.914Z,0
2023-05-02T23:44:11.891Z,0
2023-05-02T23:44:42.794Z,0
2023-05-02T23:45:14.667Z,0
2023-05-02T23:45:46.128Z,0
2023-05-02T23:46:16.122Z,0
2023-05-02T23:46:46.994Z,0
2023-05-02T23:47:18.204Z,0
2023-05-02T23:47:48.834Z,0
2023-05-02T23:48:19.731Z,0
2023-05-02T23:48:51.718Z,0
2023-05-02T23:49:21.928Z,0
2023-05-02T23:49:52.877Z,0
2023-05-02T23:50:24.110Z,0
2023-05-02T23:50:55.114Z,0
2023-05-02T23:51:25.738Z,0
2023-05-02T23:51:57.218Z,0
2023-05-02T23:52:27.991Z,0
2023-05-02T23:52:58.797Z,0
2023-05-02T23:53:29.927Z,0
2023-05-02T23:54:02.018Z,0
2023-05-02T23:54:33.702Z,0
2023-05-02T23:55:03.270Z,0
2023-05-02T23:55:33.636Z,0
2023-05-02T23:56:04.843Z,0
2023-05-02T23:56:36.235Z,0
2023-05-02T23:57:06.807Z,0
2023-05-02T23:57:37.921Z,1.44
2023-05-02T23:58:08.840Z,1.77
2023-05-02T23:58:39.933Z,1.12
2023-05-02T23:59:11.746Z,0
2023-05-02T23:59:42.617Z,0
